createdAt,value
2022-09-17T00:02:19.098Z,98549.16
2022-09-17T00:04:48.948Z,98542.09
2022-09-17T00:07:25.374Z,98541.53
2022-09-17T00:10:24.537Z,98547.66
2022-09-17T00:12:52.730Z,98556.78
2022-09-17T00:15:19.763Z,98550.28
2022-09-17T00:17:58.434Z,98547.50
2022-09-17T00:20:31.314Z,98549.47
2022-09-17T00:23:15.697Z,98549.19
2022-09-17T00:25:46.429Z,98554.00
2022-09-17T00:28:34.805Z,98549.00
2022-09-17T00:31:02.125Z,98545.38
2022-09-17T00:33:35.366Z,98549.09
2022-09-17T00:36:04.808Z,98546.13
2022-09-17T00:38:33.304Z,98544.69
2022-09-17T00:41:01.349Z,98549.34
2022-09-17T00:43:43.762Z,98547.78
2022-09-17T00:46:29.522Z,98549.16
2022-09-17T00:49:35.133Z,98554.00
2022-09-17T00:52:20.442Z,98545.75
2022-09-17T00:55:02.194Z,98549.75
2022-09-17T00:57:32.190Z,98543.41
2022-09-17T01:00:15.984Z,98539.78
2022-09-17T01:02:53.819Z,98542.22
2022-09-17T01:05:31.253Z,98545.28
2022-09-17T01:08:33.359Z,98544.59
2022-09-17T01:11:04.100Z,98546.47
2022-09-17T01:14:13.205Z,98543.44
2022-09-17T01:17:18.176Z,98531.38
2022-09-17T01:20:13.498Z,98536.63
2022-09-17T01:23:15.395Z,98521.69
2022-09-17T01:26:27.832Z,98526.84
2022-09-17T01:29:39.427Z,98527.88
2022-09-17T01:32:14.480Z,98521.53
2022-09-17T01:35:01.840Z,98524.38
2022-09-17T01:37:45.750Z,98519.56
2022-09-17T01:40:27.902Z,98515.72
2022-09-17T01:43:00.251Z,98508.41
2022-09-17T01:45:30.630Z,98514.63
2022-09-17T01:48:03.700Z,98519.72
2022-09-17T01:50:43.294Z,98527.69
2022-09-17T01:53:17.884Z,98526.25
2022-09-17T01:55:49.500Z,98523.28
2022-09-17T01:58:36.720Z,98512.66
2022-09-17T02:01:23.092Z,98512.25
2022-09-17T02:03:59.564Z,98508.78
2022-09-17T02:06:48.098Z,98507.59
2022-09-17T02:09:21.841Z,98509.19
2022-09-17T02:11:56.729Z,98497.22
2022-09-17T02:14:30.455Z,98504.31
2022-09-17T02:17:07.943Z,98501.91
2022-09-17T02:19:46.755Z,98505.47
2022-09-17T02:22:52.902Z,98513.63
2022-09-17T02:25:39.494Z,98507.53
2022-09-17T02:28:35.142Z,98511.09
2022-09-17T02:31:15.355Z,98516.09
2022-09-17T02:33:53.129Z,98519.28
2022-09-17T02:36:24.988Z,98516.34
2022-09-17T02:39:04.834Z,98499.09
2022-09-17T02:42:20.033Z,98499.09
2022-09-17T02:45:09.107Z,98502.34
2022-09-17T02:47:51.127Z,98507.84
2022-09-17T02:51:01.376Z,98505.22
2022-09-17T02:54:09.850Z,98503.34
2022-09-17T02:57:09.061Z,98506.78
2022-09-17T02:59:55.035Z,98510.88
2022-09-17T03:02:43.825Z,98514.00
2022-09-17T03:05:29.196Z,98514.47
2022-09-17T03:08:00.523Z,98516.97
2022-09-17T03:10:34.439Z,98513.41
2022-09-17T03:13:05.414Z,98508.16
2022-09-17T03:15:52.035Z,98513.84
2022-09-17T03:18:20.087Z,98506.41
2022-09-17T03:20:47.167Z,98500.16
2022-09-17T03:23:15.259Z,98500.16
2022-09-17T03:25:42.528Z,98504.97
2022-09-17T03:28:09.586Z,98508.06
2022-09-17T03:30:37.637Z,98506.78
2022-09-17T03:33:05.758Z,98517.56
2022-09-17T03:35:32.770Z,98503.69
2022-09-17T03:37:59.809Z,98503.28
2022-09-17T03:40:26.926Z,98503.34
2022-09-17T03:43:00.143Z,98500.47
2022-09-17T03:45:29.103Z,98502.47
2022-09-17T03:47:57.218Z,98500.47
2022-09-17T03:50:35.220Z,98494.91
2022-09-17T03:53:04.450Z,98494.50
2022-09-17T03:55:41.157Z,98488.09
2022-09-17T03:58:08.436Z,98493.63
2022-09-17T04:00:37.859Z,98490.81
2022-09-17T04:03:23.325Z,98485.41
2022-09-17T04:05:51.126Z,98484.34
2022-09-17T04:08:18.646Z,98486.78
2022-09-17T04:10:54.745Z,98493.59
2022-09-17T04:13:22.832Z,98488.81
2022-09-17T04:15:50.134Z,98493.25
2022-09-17T04:18:19.363Z,98483.22
2022-09-17T04:20:51.454Z,98483.72
2022-09-17T04:23:18.449Z,98482.16
2022-09-17T04:25:45.849Z,98482.44
2022-09-17T04:28:19.850Z,98482.06
2022-09-17T04:30:55.347Z,98491.19
2022-09-17T04:33:39.689Z,98489.06
2022-09-17T04:36:11.851Z,98496.34
2022-09-17T04:38:38.893Z,98478.91
2022-09-17T04:41:13.082Z,98484.78
2022-09-17T04:43:50.649Z,98480.59
2022-09-17T04:46:18.223Z,98480.56
2022-09-17T04:48:54.147Z,98477.91
2022-09-17T04:51:24.086Z,98474.06
2022-09-17T04:53:54.247Z,98475.03
2022-09-17T04:56:30.573Z,98476.78
2022-09-17T04:58:59.680Z,98472.84
2022-09-17T05:01:26.786Z,98465.25
2022-09-17T05:03:55.839Z,98481.00
2022-09-17T05:06:22.885Z,98462.09
2022-09-17T05:08:49.889Z,98480.53
2022-09-17T05:11:23.092Z,98491.06
2022-09-17T05:14:12.143Z,98508.81
2022-09-17T05:16:49.205Z,98506.78
2022-09-17T05:19:16.488Z,98507.19
2022-09-17T05:21:43.471Z,98518.81
2022-09-17T05:24:11.548Z,98521.13
2022-09-17T05:26:43.731Z,98518.34
2022-09-17T05:29:10.742Z,98518.66
2022-09-17T05:31:37.828Z,98508.56
2022-09-17T05:34:14.913Z,98503.88
2022-09-17T05:36:41.857Z,98517.72
2022-09-17T05:39:09.067Z,98513.09
2022-09-17T05:41:49.231Z,98523.88
2022-09-17T05:44:18.170Z,98530.38
2022-09-17T05:46:48.247Z,98527.53
2022-09-17T05:49:19.614Z,98528.06
2022-09-17T05:51:48.588Z,98523.75
2022-09-17T05:54:15.670Z,98526.50
2022-09-17T05:56:44.713Z,98511.78
2022-09-17T05:59:18.832Z,98505.84
2022-09-17T06:01:47.322Z,98516.25
2022-09-17T06:04:15.473Z,98518.25
2022-09-17T06:06:43.894Z,98520.31
2022-09-17T06:09:18.001Z,98508.66
2022-09-17T06:12:01.084Z,98515.38
2022-09-17T06:14:29.130Z,98517.19
2022-09-17T06:17:04.147Z,98508.34
2022-09-17T06:19:31.180Z,98509.44
2022-09-17T06:22:08.178Z,98501.13
2022-09-17T06:24:35.321Z,98506.06
2022-09-17T06:27:02.374Z,98499.75
2022-09-17T06:29:29.516Z,98506.31
2022-09-17T06:31:56.891Z,98504.44
2022-09-17T06:34:24.956Z,98510.03
2022-09-17T06:36:52.040Z,98511.84
2022-09-17T06:39:22.524Z,98516.84
2022-09-17T06:41:49.565Z,98510.28
2022-09-17T06:44:38.572Z,98523.44
2022-09-17T06:47:08.346Z,98534.47
2022-09-17T06:49:36.419Z,98539.06
2022-09-17T06:52:04.552Z,98541.28
2022-09-17T06:54:31.655Z,98545.44
2022-09-17T06:57:10.611Z,98559.03
2022-09-17T06:59:38.678Z,98541.59
2022-09-17T07:02:07.207Z,98547.72
2022-09-17T07:04:36.195Z,98540.75
2022-09-17T07:07:05.459Z,98527.06
2022-09-17T07:09:37.724Z,98524.88
2022-09-17T07:12:08.390Z,98515.81
2022-09-17T07:14:35.494Z,98528.84
2022-09-17T07:17:10.763Z,98532.81
2022-09-17T07:19:49.822Z,98531.44
2022-09-17T07:22:17.007Z,98551.94
2022-09-17T07:24:45.173Z,98542.88
2022-09-17T07:27:14.312Z,98542.88
2022-09-17T07:29:41.713Z,98534.28
2022-09-17T07:32:16.735Z,98533.53
2022-09-17T07:34:53.734Z,98544.63
2022-09-17T07:37:21.697Z,98547.94
2022-09-17T07:39:50.067Z,98533.28
2022-09-17T07:42:18.347Z,98530.81
2022-09-17T07:45:01.966Z,98530.91
2022-09-17T07:47:33.231Z,98535.25
2022-09-17T07:50:02.268Z,98537.66
2022-09-17T07:53:04.545Z,98536.97
2022-09-17T07:55:33.547Z,98546.41
2022-09-17T07:58:00.610Z,98542.06
2022-09-17T08:00:27.603Z,98546.72
2022-09-17T08:02:55.580Z,98545.88
2022-09-17T08:05:25.629Z,98547.00
2022-09-17T08:08:00.901Z,98558.34
2022-09-17T08:10:27.960Z,98546.38
2022-09-17T08:13:02.019Z,98557.22
2022-09-17T08:15:31.301Z,98549.53
2022-09-17T08:17:59.379Z,98547.47
2022-09-17T08:20:39.440Z,98547.84
2022-09-17T08:23:10.723Z,98554.81
2022-09-17T08:25:38.802Z,98557.09
2022-09-17T08:28:08.982Z,98556.25
2022-09-17T08:30:37.988Z,98555.75
2022-09-17T08:33:05.074Z,98548.19
2022-09-17T08:35:34.148Z,98548.34
2022-09-17T08:38:01.311Z,98543.91
2022-09-17T08:40:47.832Z,98542.03
2022-09-17T08:43:20.217Z,98533.44
2022-09-17T08:45:53.365Z,98520.19
2022-09-17T08:48:23.302Z,98512.88
2022-09-17T08:50:52.315Z,98526.16
2022-09-17T08:53:43.387Z,98521.59
2022-09-17T08:56:20.517Z,98544.28
2022-09-17T08:59:32.597Z,98551.16
2022-09-17T09:02:27.658Z,98562.34
2022-09-17T09:04:58.751Z,98574.69
2022-09-17T09:07:31.865Z,98573.75
2022-09-17T09:10:12.804Z,98587.56
2022-09-17T09:12:45.107Z,98585.06
2022-09-17T09:15:23.195Z,98589.78
2022-09-17T09:17:51.763Z,98578.03
2022-09-17T09:20:58.929Z,98585.06
2022-09-17T09:23:52.422Z,98585.50
2022-09-17T09:26:22.110Z,98580.59
2022-09-17T09:29:01.030Z,98580.34
2022-09-17T09:31:58.233Z,98594.13
2022-09-17T09:34:30.065Z,98592.03
2022-09-17T09:37:34.296Z,98592.91
2022-09-17T09:40:20.142Z,98597.69
2022-09-17T09:42:47.943Z,98599.19
2022-09-17T09:45:41.228Z,98594.34
2022-09-17T09:48:32.343Z,98580.03
2022-09-17T09:51:20.403Z,98583.13
2022-09-17T09:54:16.394Z,98569.09
2022-09-17T09:56:57.627Z,98589.69
2022-09-17T09:59:26.110Z,98573.34
2022-09-17T10:01:58.039Z,98576.94
2022-09-17T10:04:54.467Z,98584.41
2022-09-17T10:07:27.452Z,98580.34
2022-09-17T10:10:10.041Z,98568.13
2022-09-17T10:12:44.012Z,98569.09
2022-09-17T10:15:30.070Z,98583.13
2022-09-17T10:18:18.177Z,98584.66
2022-09-17T10:21:19.757Z,98582.63
2022-09-17T10:23:53.538Z,98582.31
2022-09-17T10:26:25.910Z,98584.09
2022-09-17T10:28:58.903Z,98589.91
2022-09-17T10:31:26.152Z,98602.25
2022-09-17T10:34:04.874Z,98601.47
2022-09-17T10:36:43.639Z,98603.97
2022-09-17T10:39:34.333Z,98613.31
2022-09-17T10:42:14.024Z,98599.69
2022-09-17T10:45:27.760Z,98609.66
2022-09-17T10:48:21.734Z,98593.72
2022-09-17T10:51:08.318Z,98601.06
2022-09-17T10:54:06.418Z,98588.63
2022-09-17T10:56:59.178Z,98602.00
2022-09-17T10:59:26.146Z,98593.25
2022-09-17T11:02:30.363Z,98589.88
2022-09-17T11:05:29.504Z,98590.69
2022-09-17T11:08:30.243Z,98597.34
2022-09-17T11:11:31.297Z,98590.63
2022-09-17T11:14:15.542Z,98585.88
2022-09-17T11:17:12.469Z,98602.44
2022-09-17T11:19:59.272Z,98597.66
2022-09-17T11:22:49.701Z,98598.91
2022-09-17T11:25:45.421Z,98592.75
2022-09-17T11:28:37.888Z,98608.06
2022-09-17T11:31:50.077Z,98590.91
2022-09-17T11:35:11.740Z,98585.84
2022-09-17T11:38:31.990Z,98596.56
2022-09-17T11:41:39.103Z,98588.19
2022-09-17T11:44:25.313Z,98584.56
2022-09-17T11:47:10.877Z,98581.00
2022-09-17T11:50:29.789Z,98583.34
2022-09-17T11:53:32.887Z,98586.88
2022-09-17T11:56:09.866Z,98586.53
2022-09-17T11:58:51.897Z,98578.91
2022-09-17T12:01:53.354Z,98579.72
2022-09-17T12:04:41.484Z,98578.03
2022-09-17T12:07:44.704Z,98573.69
2022-09-17T12:10:50.326Z,98580.03
2022-09-17T12:13:42.485Z,98578.44
2022-09-17T12:16:16.473Z,98576.31
2022-09-17T12:19:12.859Z,98576.53
2022-09-17T12:21:44.937Z,98569.94
2022-09-17T12:25:08.775Z,98582.28
2022-09-17T12:27:49.643Z,98573.81
2022-09-17T12:30:28.968Z,98567.41
2022-09-17T12:33:07.951Z,98560.81
2022-09-17T12:36:06.151Z,98563.41
2022-09-17T12:39:08.467Z,98562.31
2022-09-17T12:42:03.303Z,98569.75
2022-09-17T12:45:06.712Z,98559.09
2022-09-17T12:47:58.618Z,98553.81
2022-09-17T12:51:03.967Z,98536.44
2022-09-17T12:53:34.871Z,98538.22
2022-09-17T12:56:17.061Z,98526.44
2022-09-17T12:59:10.639Z,98535.34
2022-09-17T13:02:03.892Z,98523.66
2022-09-17T13:05:08.401Z,98528.47
2022-09-17T13:08:07.468Z,98520.53
2022-09-17T13:11:11.922Z,98519.75
2022-09-17T13:17:56.143Z,98522.69
2022-09-17T13:21:08.437Z,98520.88
2022-09-17T13:23:49.793Z,98518.78
2022-09-17T13:26:20.487Z,98526.44
2022-09-17T13:28:51.068Z,98529.13
2022-09-17T13:31:44.691Z,98517.59
2022-09-17T13:34:17.756Z,98517.72
2022-09-17T13:36:53.443Z,98518.69
2022-09-17T13:39:38.963Z,98523.94
2022-09-17T13:42:18.616Z,98528.75
2022-09-17T13:45:08.823Z,98524.84
2022-09-17T13:47:51.491Z,98521.66
2022-09-17T13:50:39.217Z,98510.94
2022-09-17T13:53:15.272Z,98496.78
2022-09-17T13:56:01.484Z,98493.50
2022-09-17T13:58:32.205Z,98485.63
2022-09-17T14:01:20.870Z,98479.88
2022-09-17T14:04:00.820Z,98477.72
2022-09-17T14:06:42.213Z,98484.75
2022-09-17T14:09:53.846Z,98473.72
2022-09-17T14:13:17.598Z,98467.81
2022-09-17T14:16:02.278Z,98460.56
2022-09-17T14:18:35.656Z,98469.75
2022-09-17T14:21:33.224Z,98484.06
2022-09-17T14:24:28.636Z,98486.53
2022-09-17T14:27:07.490Z,98514.28
2022-09-17T14:29:59.546Z,98515.34
2022-09-17T14:33:03.757Z,98518.34
2022-09-17T14:35:43.108Z,98521.06
2022-09-17T14:38:32.411Z,98517.59
2022-09-17T14:41:04.020Z,98516.25
2022-09-17T14:43:42.764Z,98541.25
2022-09-17T14:46:22.081Z,98541.69
2022-09-17T14:48:55.295Z,98552.16
2022-09-17T14:52:13.778Z,98547.03
2022-09-17T14:54:51.506Z,98534.22
2022-09-17T14:57:29.352Z,98533.88
2022-09-17T15:00:18.819Z,98518.72
2022-09-17T15:03:17.818Z,98518.38
2022-09-17T15:10:27.398Z,98500.72
2022-09-17T15:13:23.979Z,98505.56
2022-09-17T15:16:08.101Z,98501.84
2022-09-17T15:18:44.654Z,98504.22
2022-09-17T15:21:23.562Z,98496.78
2022-09-17T15:23:57.477Z,98489.91
2022-09-17T15:26:32.425Z,98491.34
2022-09-17T15:29:13.082Z,98495.34
2022-09-17T15:31:40.267Z,98494.72
2022-09-17T15:34:13.247Z,98499.31
2022-09-17T15:36:40.483Z,98507.38
2022-09-17T15:39:30.796Z,98510.03
2022-09-17T15:41:58.947Z,98514.06
2022-09-17T15:44:31.234Z,98502.13
2022-09-17T15:47:38.216Z,98512.75
2022-09-17T15:51:05.051Z,98499.81
2022-09-17T15:53:34.332Z,98496.31
2022-09-17T15:56:18.265Z,98495.34
2022-09-17T15:58:48.157Z,98492.06
2022-09-17T16:01:15.386Z,98493.00
2022-09-17T16:03:43.628Z,98488.56
2022-09-17T16:06:19.992Z,98492.34
2022-09-17T16:08:50.830Z,98500.41
2022-09-17T16:11:22.670Z,98504.13
2022-09-17T16:13:52.159Z,98512.81
2022-09-17T16:16:47.350Z,98513.16
2022-09-17T16:19:14.287Z,98518.09
2022-09-17T16:21:42.210Z,98509.94
2022-09-17T16:24:09.163Z,98516.81
2022-09-17T16:26:36.416Z,98518.38
2022-09-17T16:29:06.135Z,98516.69
2022-09-17T16:31:34.322Z,98512.91
2022-09-17T16:34:01.731Z,98510.44
2022-09-17T16:36:31.354Z,98503.44
2022-09-17T16:38:59.643Z,98511.00
2022-09-17T16:41:26.804Z,98513.84
2022-09-17T16:43:53.888Z,98524.69
2022-09-17T16:46:20.925Z,98525.78
2022-09-17T16:48:51.206Z,98530.97
2022-09-17T16:51:24.200Z,98531.97
2022-09-17T16:53:57.917Z,98523.09
2022-09-17T16:56:26.755Z,98520.50
2022-09-17T16:58:57.858Z,98512.97
2022-09-17T17:01:26.137Z,98515.09
2022-09-17T17:03:59.741Z,98519.34
2022-09-17T17:06:33.631Z,98514.00
2022-09-17T17:09:05.625Z,98516.09
2022-09-17T17:11:33.906Z,98514.19
2022-09-17T17:14:09.471Z,98517.22
2022-09-17T17:16:41.006Z,98512.84
2022-09-17T17:19:08.268Z,98515.44
2022-09-17T17:21:35.265Z,98515.63
2022-09-17T17:24:02.580Z,98507.38
2022-09-17T17:26:29.679Z,98506.13
2022-09-17T17:28:57.790Z,98502.09
2022-09-17T17:31:24.908Z,98502.84
2022-09-17T17:33:52.005Z,98500.22
2022-09-17T17:36:19.059Z,98508.34
2022-09-17T17:38:46.170Z,98512.56
2022-09-17T17:41:15.840Z,98528.00
2022-09-17T17:43:44.868Z,98534.41
2022-09-17T17:46:13.275Z,98545.66
2022-09-17T17:48:40.521Z,98544.22
2022-09-17T17:51:09.802Z,98536.63
2022-09-17T17:53:41.381Z,98549.13
2022-09-17T17:56:11.884Z,98543.06
2022-09-17T17:58:46.541Z,98542.88
2022-09-17T18:01:17.143Z,98535.13
2022-09-17T18:03:44.655Z,98529.25
2022-09-17T18:06:13.897Z,98533.50
2022-09-17T18:08:46.995Z,98552.16
2022-09-17T18:11:16.549Z,98556.97
2022-09-17T18:13:43.593Z,98557.47
2022-09-17T18:16:13.101Z,98560.09
2022-09-17T18:18:44.996Z,98559.19
2022-09-17T18:21:17.499Z,98555.78
2022-09-17T18:23:45.816Z,98574.84
2022-09-17T18:26:22.464Z,98573.34
2022-09-17T18:28:51.130Z,98571.75
2022-09-17T18:31:33.481Z,98572.06
2022-09-17T18:34:03.858Z,98569.03
2022-09-17T18:36:33.707Z,98579.41
2022-09-17T18:39:32.840Z,98568.81
2022-09-17T18:41:52.186Z,98569.84
2022-09-17T18:44:22.063Z,98552.19
2022-09-17T18:46:50.499Z,98553.88
2022-09-17T18:49:17.940Z,98556.81
2022-09-17T18:51:47.175Z,98556.72
2022-09-17T18:54:14.372Z,98569.66
2022-09-17T18:56:42.737Z,98562.50
2022-09-17T18:59:13.801Z,98562.19
2022-09-17T19:01:42.947Z,98560.69
2022-09-17T19:04:11.519Z,98553.88
2022-09-17T19:06:38.785Z,98566.13
2022-09-17T19:09:06.514Z,98561.16
2022-09-17T19:11:35.786Z,98555.38
2022-09-17T19:14:02.931Z,98567.25
2022-09-17T19:16:30.143Z,98574.78
2022-09-17T19:18:57.301Z,98576.19
2022-09-17T19:21:27.841Z,98569.09
2022-09-17T19:23:54.930Z,98566.06
2022-09-17T19:26:25.652Z,98570.22
2022-09-17T19:28:56.495Z,98579.06
2022-09-17T19:31:24.379Z,98571.25
2022-09-17T19:33:52.032Z,98573.78
2022-09-17T19:36:20.830Z,98581.81
2022-09-17T19:38:48.881Z,98576.63
2022-09-17T19:41:23.476Z,98576.84
2022-09-17T19:43:52.539Z,98570.78
2022-09-17T19:46:22.415Z,98567.59
2022-09-17T19:48:54.696Z,98574.63
2022-09-17T19:51:23.464Z,98570.00
2022-09-17T19:53:51.375Z,98566.97
2022-09-17T19:56:26.794Z,98570.56
2022-09-17T19:58:54.005Z,98566.06
2022-09-17T20:01:21.186Z,98562.19
2022-09-17T20:03:48.974Z,98564.78
2022-09-17T20:06:19.245Z,98559.31
2022-09-17T20:08:54.658Z,98561.09
2022-09-17T20:11:25.122Z,98563.59
2022-09-17T20:14:07.403Z,98563.91
2022-09-17T20:16:40.901Z,98567.47
2022-09-17T20:19:17.238Z,98563.59
2022-09-17T20:21:44.490Z,98569.41
2022-09-17T20:24:14.139Z,98570.41
2022-09-17T20:26:49.251Z,98554.00
2022-09-17T20:29:17.388Z,98557.97
2022-09-17T20:31:53.671Z,98553.16
2022-09-17T20:34:28.750Z,98561.22
2022-09-17T20:37:12.300Z,98557.13
2022-09-17T20:39:40.548Z,98550.75
2022-09-17T20:42:12.668Z,98565.66
2022-09-17T20:44:43.765Z,98562.00
2022-09-17T20:47:12.868Z,98561.41
2022-09-17T20:49:46.051Z,98564.06
2022-09-17T20:52:13.068Z,98562.94
2022-09-17T20:55:06.685Z,98558.94
2022-09-17T20:57:40.994Z,98562.00
2022-09-17T21:00:20.945Z,98558.88
2022-09-17T21:02:57.480Z,98553.06
2022-09-17T21:05:24.472Z,98562.78
2022-09-17T21:07:57.493Z,98568.22
2022-09-17T21:10:28.479Z,98559.34
2022-09-17T21:12:55.563Z,98563.78
2022-09-17T21:15:22.747Z,98550.06
2022-09-17T21:18:02.060Z,98550.00
2022-09-17T21:20:29.142Z,98546.09
2022-09-17T21:22:58.148Z,98552.22
2022-09-17T21:25:31.471Z,98556.44
2022-09-17T21:27:59.961Z,98554.59
2022-09-17T21:30:27.085Z,98551.38
2022-09-17T21:32:55.856Z,98555.31
2022-09-17T21:35:33.021Z,98554.84
2022-09-17T21:38:01.058Z,98555.09
2022-09-17T21:40:28.212Z,98554.66
2022-09-17T21:42:57.364Z,98556.81
2022-09-17T21:45:24.526Z,98564.78
2022-09-17T21:47:52.685Z,98559.84
2022-09-17T21:50:20.136Z,98555.41
2022-09-17T21:52:48.220Z,98555.94
2022-09-17T21:55:21.497Z,98562.72
2022-09-17T21:57:51.642Z,98565.50
2022-09-17T22:00:23.340Z,98563.81
2022-09-17T22:02:59.379Z,98556.34
2022-09-17T22:05:27.417Z,98563.88
2022-09-17T22:07:55.613Z,98555.91
2022-09-17T22:10:22.696Z,98552.41
2022-09-17T22:12:54.103Z,98555.34
2022-09-17T22:15:22.280Z,98555.19
2022-09-17T22:17:49.266Z,98557.16
2022-09-17T22:20:16.572Z,98555.59
2022-09-17T22:22:43.677Z,98556.53
2022-09-17T22:25:16.807Z,98561.56
2022-09-17T22:28:19.447Z,98563.34
2022-09-17T22:30:45.955Z,98558.59
2022-09-17T22:33:22.208Z,98556.53
2022-09-17T22:36:12.380Z,98552.13
2022-09-17T22:38:39.802Z,98558.94
2022-09-17T22:41:18.464Z,98557.44
2022-09-17T22:43:57.933Z,98548.88
2022-09-17T22:46:31.601Z,98550.47
2022-09-17T22:49:01.024Z,98548.19
2022-09-17T22:51:31.434Z,98548.53
2022-09-17T22:54:01.875Z,98536.94
2022-09-17T22:56:30.985Z,98545.53
2022-09-17T22:59:06.278Z,98544.25
2022-09-17T23:01:48.753Z,98544.66
2022-09-17T23:04:15.821Z,98552.66
2022-09-17T23:06:43.830Z,98542.38
2022-09-17T23:09:13.970Z,98548.00
2022-09-17T23:11:42.250Z,98550.38
2022-09-17T23:14:12.743Z,98552.13
2022-09-17T23:16:46.920Z,98547.34
2022-09-17T23:19:17.278Z,98538.97
2022-09-17T23:21:46.220Z,98547.03
2022-09-17T23:24:18.959Z,98544.41
2022-09-17T23:26:46.040Z,98549.34
2022-09-17T23:29:14.344Z,98549.50
2022-09-17T23:31:45.679Z,98548.25
2022-09-17T23:34:12.730Z,98543.31
2022-09-17T23:36:42.008Z,98547.16
2022-09-17T23:39:11.408Z,98545.28
2022-09-17T23:41:40.965Z,98542.34
2022-09-17T23:44:14.922Z,98547.47
2022-09-17T23:46:44.459Z,98546.84
2022-09-17T23:49:15.492Z,98542.66
2022-09-17T23:51:45.446Z,98536.06
2022-09-17T23:54:13.732Z,98549.34
2022-09-17T23:56:42.836Z,98551.88
2022-09-17T23:59:10.675Z,98555.97
